createdAt,value
2018-04-12T00:00:01.141Z,8.10
2018-04-12T00:02:28.609Z,8.10
2018-04-12T00:04:56.057Z,8.00
2018-04-12T00:07:23.504Z,8.00
2018-04-12T00:09:51.016Z,8.00
2018-04-12T00:12:18.469Z,8.00
2018-04-12T00:14:45.935Z,7.90
2018-04-12T00:17:13.384Z,8.00
2018-04-12T00:19:40.837Z,7.90
2018-04-12T00:22:09.084Z,7.90
2018-04-12T00:24:36.540Z,7.90
2018-04-12T00:27:04.025Z,7.90
2018-04-12T00:29:31.478Z,7.90
2018-04-12T00:31:58.960Z,7.90
2018-04-12T00:34:26.440Z,7.90
2018-04-12T00:36:53.889Z,7.90
2018-04-12T00:39:21.360Z,7.90
2018-04-12T00:41:48.844Z,7.90
2018-04-12T00:44:16.296Z,7.90
2018-04-12T00:46:43.781Z,7.80
2018-04-12T00:49:11.252Z,7.80
2018-04-12T00:51:38.721Z,7.70
2018-04-12T00:54:06.167Z,7.70
2018-04-12T00:56:33.616Z,7.70
2018-04-12T00:59:01.088Z,7.70
2018-04-12T01:01:28.604Z,7.60
2018-04-12T01:03:56.181Z,7.60
2018-04-12T01:06:23.629Z,7.60
2018-04-12T01:08:51.080Z,7.60
2018-04-12T01:11:18.558Z,7.60
2018-04-12T01:13:46.005Z,7.50
2018-04-12T01:16:14.244Z,7.40
2018-04-12T01:18:41.692Z,7.40
2018-04-12T01:21:09.185Z,7.50
2018-04-12T01:23:36.652Z,7.40
2018-04-12T01:26:04.124Z,7.40
2018-04-12T01:28:31.588Z,7.40
2018-04-12T01:30:59.077Z,7.40
2018-04-12T01:33:26.524Z,7.30
2018-04-12T01:35:54.068Z,7.30
2018-04-12T01:38:21.508Z,7.30
2018-04-12T01:40:49.748Z,7.20
2018-04-12T01:43:17.200Z,7.20
2018-04-12T01:45:44.650Z,7.20
2018-04-12T01:48:12.885Z,7.20
2018-04-12T01:50:40.352Z,7.20
2018-04-12T01:53:07.825Z,7.10
2018-04-12T01:55:36.205Z,7.10
2018-04-12T01:58:03.652Z,7.10
2018-04-12T02:00:31.156Z,7.00
2018-04-12T02:02:58.608Z,7.00
2018-04-12T02:05:26.060Z,6.90
2018-04-12T02:07:53.633Z,6.90
2018-04-12T02:10:21.079Z,6.90
2018-04-12T02:12:49.312Z,6.90
2018-04-12T02:15:16.796Z,6.90
2018-04-12T02:17:44.264Z,6.90
2018-04-12T02:20:11.848Z,6.90
2018-04-12T02:22:39.293Z,6.90
2018-04-12T02:25:06.776Z,6.90
2018-04-12T02:27:34.235Z,6.90
2018-04-12T02:30:01.681Z,6.80
2018-04-12T02:32:29.149Z,6.80
2018-04-12T02:34:56.661Z,6.80
2018-04-12T02:37:24.147Z,6.70
2018-04-12T02:39:51.584Z,6.70
2018-04-12T02:42:19.069Z,6.70
2018-04-12T02:44:46.536Z,6.70
2018-04-12T02:47:14.070Z,6.70
2018-04-12T02:49:41.528Z,6.60
2018-04-12T02:52:09.766Z,6.60
2018-04-12T02:54:37.236Z,6.60
2018-04-12T02:57:04.808Z,6.60
2018-04-12T02:59:32.260Z,6.60
2018-04-12T03:01:59.728Z,6.60
2018-04-12T03:04:27.224Z,6.60
2018-04-12T03:06:54.668Z,6.60
2018-04-12T03:09:22.128Z,6.60
2018-04-12T03:11:49.576Z,6.60
2018-04-12T03:14:17.812Z,6.50
2018-04-12T03:16:45.256Z,6.50
2018-04-12T03:19:12.708Z,6.50
2018-04-12T03:21:40.169Z,6.40
2018-04-12T03:24:08.473Z,6.40
2018-04-12T03:26:36.696Z,6.40
2018-04-12T03:29:04.148Z,6.40
2018-04-12T03:31:31.592Z,6.40
2018-04-12T03:33:59.112Z,6.40
2018-04-12T03:36:26.557Z,6.40
2018-04-12T03:38:54.156Z,6.30
2018-04-12T03:41:21.603Z,6.30
2018-04-12T03:43:49.053Z,6.20
2018-04-12T03:46:16.511Z,6.20
2018-04-12T03:48:44.087Z,6.20
2018-04-12T03:51:11.599Z,6.20
2018-04-12T03:53:39.078Z,6.20
2018-04-12T03:56:06.519Z,6.20
2018-04-12T03:58:33.984Z,6.20
2018-04-12T04:01:01.436Z,6.20
2018-04-12T04:03:28.901Z,6.20
2018-04-12T04:05:57.113Z,6.20
2018-04-12T04:08:24.569Z,6.20
2018-04-12T04:10:52.119Z,6.20
2018-04-12T04:13:19.554Z,6.20
2018-04-12T04:15:58.929Z,6.30
2018-04-12T04:18:38.280Z,6.30
2018-04-12T04:21:11.069Z,6.20
2018-04-12T04:23:38.608Z,6.20
2018-04-12T04:26:06.189Z,6.30
2018-04-12T04:28:33.631Z,6.20
2018-04-12T04:31:01.125Z,6.10
2018-04-12T04:33:28.599Z,6.20
2018-04-12T04:35:56.052Z,6.20
2018-04-12T04:38:23.518Z,6.20
2018-04-12T04:40:50.965Z,6.20
2018-04-12T04:43:18.468Z,6.20
2018-04-12T04:45:45.932Z,6.30
2018-04-12T04:48:13.426Z,6.30
2018-04-12T04:50:40.848Z,6.30
2018-04-12T04:53:08.360Z,6.30
2018-04-12T04:55:35.803Z,6.30
2018-04-12T04:58:03.275Z,6.30
2018-04-12T05:00:30.733Z,6.30
2018-04-12T05:02:58.205Z,6.30
2018-04-12T05:05:25.653Z,6.30
2018-04-12T05:07:53.865Z,6.30
2018-04-12T05:10:22.296Z,6.30
2018-04-12T05:12:49.740Z,6.30
2018-04-12T05:15:17.208Z,6.40
2018-04-12T05:17:44.652Z,6.50
2018-04-12T05:20:12.160Z,6.60
2018-04-12T05:22:39.625Z,6.60
2018-04-12T05:25:07.102Z,6.70
2018-04-12T05:27:34.584Z,6.80
2018-04-12T05:30:02.030Z,6.90
2018-04-12T09:33:24.640Z,19.70
2018-04-12T10:32:58.704Z,21.20
2018-04-12T10:35:26.167Z,21.00
2018-04-12T10:37:53.628Z,20.80
2018-04-12T10:40:21.873Z,21.50
2018-04-12T10:42:49.353Z,21.40
2018-04-12T10:45:16.805Z,21.80
2018-04-12T10:47:44.264Z,22.40
2018-04-12T10:50:11.811Z,22.60
2018-04-12T10:52:40.025Z,22.20
2018-04-12T10:55:07.503Z,22.10
2018-04-12T10:57:34.948Z,21.80
2018-04-12T11:00:02.417Z,21.80
2018-04-12T11:02:29.880Z,21.60
2018-04-12T11:04:57.407Z,21.70
2018-04-12T11:07:24.817Z,22.00
2018-04-12T11:09:52.320Z,22.20
2018-04-12T11:12:19.931Z,21.70
2018-04-12T11:14:47.368Z,21.80
2018-04-12T11:17:14.936Z,21.70
2018-04-12T11:19:42.397Z,21.40
2018-04-12T11:22:09.860Z,21.90
2018-04-12T11:24:37.313Z,22.30
2018-04-12T11:27:04.835Z,23.00
2018-04-12T11:29:32.261Z,22.90
2018-04-12T11:31:59.712Z,23.40
2018-04-12T11:34:27.243Z,23.40
2018-04-12T11:36:54.702Z,23.20
2018-04-12T11:39:22.273Z,23.00
2018-04-12T11:41:49.724Z,22.70
2018-04-12T11:44:17.193Z,22.80
2018-04-12T11:46:44.687Z,22.80
2018-04-12T11:49:12.124Z,22.40
2018-04-12T11:51:39.620Z,22.20
2018-04-12T11:54:07.072Z,23.00
2018-04-12T11:56:34.574Z,24.20
2018-04-12T11:59:02.006Z,24.90
2018-04-12T12:01:29.472Z,25.30
2018-04-12T12:03:56.938Z,25.70
2018-04-12T12:06:24.398Z,26.10
2018-04-12T12:08:51.848Z,26.30
2018-04-12T12:11:20.105Z,26.80
2018-04-12T12:13:47.564Z,26.80
2018-04-12T12:16:15.036Z,27.20
2018-04-12T12:18:42.576Z,27.50
2018-04-12T12:21:10.107Z,28.00
2018-04-12T12:23:37.569Z,27.80
2018-04-12T12:26:05.029Z,27.70
2018-04-12T12:28:32.510Z,27.30
2018-04-12T12:30:59.968Z,27.60
2018-04-12T12:33:27.438Z,28.20
2018-04-12T12:35:54.887Z,28.60
2018-04-12T12:38:22.386Z,29.20
2018-04-12T12:40:49.851Z,29.30
2018-04-12T12:43:17.325Z,29.00
2018-04-12T12:45:46.305Z,28.60
2018-04-12T12:50:26.520Z,28.70
2018-04-12T12:52:53.981Z,28.40
2018-04-12T12:55:21.545Z,28.50
2018-04-12T12:57:49.016Z,28.90
2018-04-12T17:33:54.872Z,19.50
2018-04-12T17:36:22.318Z,19.30
2018-04-12T17:38:50.589Z,19.20
2018-04-12T17:41:18.036Z,19.20
2018-04-12T17:43:45.572Z,19.20
2018-04-12T17:46:13.016Z,19.10
2018-04-12T17:48:41.248Z,19.00
2018-04-12T17:51:08.763Z,19.00
2018-04-12T17:53:36.313Z,19.00
2018-04-12T17:56:03.764Z,19.00
2018-04-12T17:58:31.217Z,18.90
2018-04-12T18:00:58.684Z,18.80
2018-04-12T18:03:26.188Z,18.80
2018-04-12T18:05:53.762Z,18.70
2018-04-12T18:08:21.209Z,18.70
2018-04-12T18:10:48.672Z,18.60
2018-04-12T18:13:16.168Z,18.60
2018-04-12T18:15:43.626Z,18.50
2018-04-12T18:18:11.117Z,18.50
2018-04-12T18:20:38.584Z,18.40
2018-04-12T18:23:06.050Z,18.40
2018-04-12T18:25:33.512Z,18.30
2018-04-12T18:28:01.098Z,18.30
2018-04-12T18:30:28.545Z,18.20
2018-04-12T18:32:56.016Z,18.10
2018-04-12T18:35:23.468Z,18.10
2018-04-12T18:37:50.932Z,17.90
2018-04-12T18:40:18.384Z,17.80
2018-04-12T18:42:46.632Z,17.60
2018-04-12T18:45:14.117Z,17.60
2018-04-12T18:47:41.560Z,17.50
2018-04-12T18:50:09.032Z,17.40
2018-04-12T18:52:36.516Z,17.30
2018-04-12T18:55:03.961Z,17.10
2018-04-12T18:57:31.411Z,17.00
2018-04-12T18:59:58.877Z,16.90
2018-04-12T19:02:26.336Z,16.90
2018-04-12T19:04:54.641Z,16.80
2018-04-12T19:07:22.084Z,16.70
2018-04-12T19:09:49.683Z,16.90
2018-04-12T19:12:17.920Z,16.90
2018-04-12T19:14:45.480Z,16.90
2018-04-12T19:17:12.945Z,16.90
2018-04-12T19:19:40.422Z,16.90
2018-04-12T19:22:07.892Z,16.90
2018-04-12T19:24:35.348Z,16.80
2018-04-12T19:27:02.840Z,16.80
2018-04-12T19:29:30.304Z,16.70
2018-04-12T19:31:57.760Z,16.70
2018-04-12T19:34:25.237Z,16.60
2018-04-12T19:36:52.710Z,16.60
2018-04-12T19:39:20.169Z,16.50
2018-04-12T19:41:47.650Z,16.50
2018-04-12T19:44:15.121Z,16.50
2018-04-12T19:46:42.569Z,16.40
2018-04-12T19:49:10.057Z,16.30
2018-04-12T19:51:37.531Z,16.20
2018-04-12T19:54:04.997Z,16.20
2018-04-12T19:56:32.468Z,16.10
2018-04-12T19:58:59.936Z,16.00
2018-04-12T20:01:27.408Z,15.80
2018-04-12T20:03:54.874Z,15.70
2018-04-12T20:06:22.340Z,15.50
2018-04-12T20:08:49.788Z,15.40
2018-04-12T20:11:17.252Z,15.30
2018-04-12T20:13:44.821Z,15.10
2018-04-12T20:16:13.140Z,14.90
2018-04-12T20:18:40.620Z,14.90
2018-04-12T20:21:08.092Z,14.80
2018-04-12T20:23:35.557Z,14.70
2018-04-12T20:26:03.028Z,14.60
2018-04-12T20:28:30.492Z,14.50
2018-04-12T20:30:57.941Z,14.40
2018-04-12T20:33:25.400Z,14.30
2018-04-12T20:35:52.856Z,14.20
2018-04-12T20:38:21.081Z,14.10
2018-04-12T20:40:48.528Z,14.10
2018-04-12T20:43:16.032Z,14.00
2018-04-12T20:45:43.500Z,13.90
2018-04-12T20:48:10.968Z,13.80
2018-04-12T20:50:38.436Z,13.80
2018-04-12T20:53:05.916Z,13.70
2018-04-12T20:55:33.548Z,13.70
2018-04-12T20:58:00.992Z,13.60
2018-04-12T21:00:29.311Z,13.40
2018-04-12T21:02:56.802Z,13.40
2018-04-12T21:05:24.981Z,13.30
2018-04-12T21:07:52.436Z,13.30
2018-04-12T21:10:19.901Z,13.30
2018-04-12T21:12:47.410Z,13.20
2018-04-12T21:15:14.911Z,13.10
2018-04-12T21:17:42.452Z,13.10
2018-04-12T21:20:09.904Z,13.00
2018-04-12T21:22:37.401Z,13.00
2018-04-12T21:25:04.862Z,12.90
2018-04-12T21:27:32.324Z,12.80
2018-04-12T21:29:59.802Z,12.80
2018-04-12T21:32:27.277Z,12.70
2018-04-12T21:34:54.726Z,12.70
2018-04-12T21:37:22.191Z,12.60
2018-04-12T21:39:49.680Z,12.60
2018-04-12T21:42:17.128Z,12.50
2018-04-12T21:44:44.589Z,12.40
2018-04-12T21:47:12.096Z,12.40
2018-04-12T21:49:39.675Z,12.30
2018-04-12T21:52:07.197Z,12.30
2018-04-12T21:54:35.414Z,12.20
2018-04-12T21:57:02.864Z,12.20
2018-04-12T21:59:30.360Z,12.20
2018-04-12T22:01:57.808Z,12.20
2018-04-12T22:04:25.300Z,12.10
2018-04-12T22:06:52.772Z,12.00
2018-04-12T22:09:20.220Z,12.00
2018-04-12T22:11:47.681Z,11.90
2018-04-12T22:14:15.132Z,11.90
2018-04-12T22:16:43.437Z,11.80
2018-04-12T22:19:10.876Z,11.80
2018-04-12T22:21:39.112Z,11.80
2018-04-12T22:24:06.597Z,11.80
2018-04-12T22:26:34.052Z,11.80
2018-04-12T22:29:01.509Z,11.70
2018-04-12T22:31:28.968Z,11.70
2018-04-12T22:33:56.428Z,11.60
2018-04-12T22:36:23.876Z,11.60
2018-04-12T22:38:51.338Z,11.50
2018-04-12T22:41:18.892Z,11.50
2018-04-12T22:43:46.464Z,11.40
2018-04-12T22:46:13.940Z,11.40
2018-04-12T22:48:41.420Z,11.30
2018-04-12T22:51:08.877Z,11.30
2018-04-12T22:53:36.324Z,11.20
2018-04-12T22:56:03.786Z,11.20
2018-04-12T22:58:31.238Z,11.10
2018-04-12T23:00:58.708Z,11.10
2018-04-12T23:03:26.947Z,11.00
2018-04-12T23:05:54.404Z,11.00
2018-04-12T23:08:21.861Z,10.90
2018-04-12T23:10:49.348Z,10.90
2018-04-12T23:13:16.796Z,10.80
2018-04-12T23:15:44.248Z,10.80
2018-04-12T23:18:11.713Z,10.80
2018-04-12T23:20:39.229Z,10.80
2018-04-12T23:23:06.799Z,10.70
2018-04-12T23:25:34.245Z,10.60
2018-04-12T23:28:01.700Z,10.60
2018-04-12T23:30:29.172Z,10.50
2018-04-12T23:32:56.635Z,10.40
2018-04-12T23:35:24.140Z,10.40
2018-04-12T23:37:51.612Z,10.40
2018-04-12T23:40:19.080Z,10.40
2018-04-12T23:42:46.557Z,10.40
2018-04-12T23:45:14.004Z,10.30
2018-04-12T23:47:41.499Z,10.30
2018-04-12T23:50:08.956Z,10.30
2018-04-12T23:52:36.433Z,10.30
2018-04-12T23:55:03.880Z,10.30
2018-04-12T23:57:31.352Z,10.20
2018-04-12T23:59:58.824Z,10.10
